sensor_id;sensor_type;location;lat;lon;timestamp;temperature;humidity
41722;DHT22;27407;24.142;-110.310;2023-02-15T00:01:06;23.10;94.80
41722;DHT22;27407;24.142;-110.310;2023-02-15T00:03:34;23.40;94.60
41722;DHT22;27407;24.142;-110.310;2023-02-15T00:06:02;24.40;94.20
41722;DHT22;27407;24.142;-110.310;2023-02-15T00:08:39;23.90;94.10
41722;DHT22;27407;24.142;-110.310;2023-02-15T00:11:15;24.00;94.10
41722;DHT22;27407;24.142;-110.310;2023-02-15T00:14:07;24.00;93.70
41722;DHT22;27407;24.142;-110.310;2023-02-15T00:16:35;24.10;93.70
41722;DHT22;27407;24.142;-110.310;2023-02-15T00:19:03;20.80;92.30
41722;DHT22;27407;24.142;-110.310;2023-02-15T00:21:31;23.70;92.70
41722;DHT22;27407;24.142;-110.310;2023-02-15T00:24:05;23.70;92.70
41722;DHT22;27407;24.142;-110.310;2023-02-15T00:26:32;24.60;92.30
41722;DHT22;27407;24.142;-110.310;2023-02-15T00:28:59;23.50;92.20
41722;DHT22;27407;24.142;-110.310;2023-02-15T00:31:28;23.30;92.90
41722;DHT22;27407;24.142;-110.310;2023-02-15T00:34:05;22.80;92.90
41722;DHT22;27407;24.142;-110.310;2023-02-15T00:36:35;22.90;93.10
41722;DHT22;27407;24.142;-110.310;2023-02-15T00:39:03;22.90;93.60
41722;DHT22;27407;24.142;-110.310;2023-02-15T00:41:31;22.50;93.30
41722;DHT22;27407;24.142;-110.310;2023-02-15T00:48:52;22.30;93.90
41722;DHT22;27407;24.142;-110.310;2023-02-15T00:53:49;22.00;94.30
41722;DHT22;27407;24.142;-110.310;2023-02-15T00:56:17;21.80;94.30
41722;DHT22;27407;24.142;-110.310;2023-02-15T01:01:16;21.40;94.60
41722;DHT22;27407;24.142;-110.310;2023-02-15T01:03:44;20.60;93.60
41722;DHT22;27407;24.142;-110.310;2023-02-15T01:06:22;21.30;93.30
41722;DHT22;27407;24.142;-110.310;2023-02-15T01:11:23;20.70;93.60
41722;DHT22;27407;24.142;-110.310;2023-02-15T01:13:55;20.50;94.00
41722;DHT22;27407;24.142;-110.310;2023-02-15T01:16:25;20.20;94.40
41722;DHT22;27407;24.142;-110.310;2023-02-15T01:18:52;20.30;94.80
41722;DHT22;27407;24.142;-110.310;2023-02-15T01:21:22;20.50;95.30
41722;DHT22;27407;24.142;-110.310;2023-02-15T01:23:52;20.20;95.60
41722;DHT22;27407;24.142;-110.310;2023-02-15T01:26:19;21.80;96.60
41722;DHT22;27407;24.142;-110.310;2023-02-15T01:31:18;20.40;96.60
41722;DHT22;27407;24.142;-110.310;2023-02-15T01:38:46;19.70;97.80
41722;DHT22;27407;24.142;-110.310;2023-02-15T01:44:01;18.20;98.20
41722;DHT22;27407;24.142;-110.310;2023-02-15T01:46:40;19.50;99.00
41722;DHT22;27407;24.142;-110.310;2023-02-15T01:49:15;20.00;99.80
41722;DHT22;27407;24.142;-110.310;2023-02-15T01:51:44;19.20;99.90
41722;DHT22;27407;24.142;-110.310;2023-02-15T01:54:23;19.10;99.90
41722;DHT22;27407;24.142;-110.310;2023-02-15T01:56:53;19.00;99.90
41722;DHT22;27407;24.142;-110.310;2023-02-15T01:59:23;19.60;99.90
41722;DHT22;27407;24.142;-110.310;2023-02-15T02:01:56;18.60;99.90
41722;DHT22;27407;24.142;-110.310;2023-02-15T02:06:57;18.70;99.90
41722;DHT22;27407;24.142;-110.310;2023-02-15T02:09:24;18.10;99.90
41722;DHT22;27407;24.142;-110.310;2023-02-15T02:14:20;18.50;99.90
41722;DHT22;27407;24.142;-110.310;2023-02-15T02:20:14;18.20;99.90
41722;DHT22;27407;24.142;-110.310;2023-02-15T02:28:54;18.20;99.90
41722;DHT22;27407;24.142;-110.310;2023-02-15T02:36:35;18.20;99.90
41722;DHT22;27407;24.142;-110.310;2023-02-15T02:44:22;18.10;99.90
41722;DHT22;27407;24.142;-110.310;2023-02-15T02:46:58;17.80;99.90
41722;DHT22;27407;24.142;-110.310;2023-02-15T02:49:34;17.90;99.90
41722;DHT22;27407;24.142;-110.310;2023-02-15T02:52:03;17.90;99.90
41722;DHT22;27407;24.142;-110.310;2023-02-15T02:54:34;19.30;99.90
41722;DHT22;27407;24.142;-110.310;2023-02-15T02:57:05;17.70;99.90
41722;DHT22;27407;24.142;-110.310;2023-02-15T02:59:40;18.30;99.90
41722;DHT22;27407;24.142;-110.310;2023-02-15T03:02:16;18.60;99.90
41722;DHT22;27407;24.142;-110.310;2023-02-15T03:04:51;18.60;99.90
41722;DHT22;27407;24.142;-110.310;2023-02-15T03:07:26;19.40;99.90
41722;DHT22;27407;24.142;-110.310;2023-02-15T03:09:56;18.80;99.90
41722;DHT22;27407;24.142;-110.310;2023-02-15T03:12:33;18.90;99.90
41722;DHT22;27407;24.142;-110.310;2023-02-15T03:15:06;18.80;99.90
41722;DHT22;27407;24.142;-110.310;2023-02-15T03:17:41;19.90;99.90
41722;DHT22;27407;24.142;-110.310;2023-02-15T03:20:14;18.80;99.90
41722;DHT22;27407;24.142;-110.310;2023-02-15T03:22:50;18.50;99.90
41722;DHT22;27407;24.142;-110.310;2023-02-15T03:27:49;18.60;99.90
41722;DHT22;27407;24.142;-110.310;2023-02-15T03:30:19;18.70;99.90
41722;DHT22;27407;24.142;-110.310;2023-02-15T03:32:49;18.50;99.90
41722;DHT22;27407;24.142;-110.310;2023-02-15T03:35:19;18.40;99.90
41722;DHT22;27407;24.142;-110.310;2023-02-15T03:37:55;18.50;99.90
41722;DHT22;27407;24.142;-110.310;2023-02-15T03:40:28;18.50;99.90
41722;DHT22;27407;24.142;-110.310;2023-02-15T03:46:28;18.40;99.90
41722;DHT22;27407;24.142;-110.310;2023-02-15T03:49:36;18.20;99.90
41722;DHT22;27407;24.142;-110.310;2023-02-15T03:52:04;18.20;99.90
41722;DHT22;27407;24.142;-110.310;2023-02-15T03:54:33;18.20;99.90
41722;DHT22;27407;24.142;-110.310;2023-02-15T03:57:25;18.10;99.90
41722;DHT22;27407;24.142;-110.310;2023-02-15T04:00:21;18.40;99.90
41722;DHT22;27407;24.142;-110.310;2023-02-15T04:05:44;17.40;99.90
41722;DHT22;27407;24.142;-110.310;2023-02-15T04:08:12;17.80;99.90
41722;DHT22;27407;24.142;-110.310;2023-02-15T04:10:39;17.90;99.90
41722;DHT22;27407;24.142;-110.310;2023-02-15T04:13:30;17.80;99.90
41722;DHT22;27407;24.142;-110.310;2023-02-15T04:21:20;17.80;99.90
41722;DHT22;27407;24.142;-110.310;2023-02-15T04:24:05;16.50;99.90
41722;DHT22;27407;24.142;-110.310;2023-02-15T04:29:19;17.60;99.90
41722;DHT22;27407;24.142;-110.310;2023-02-15T04:31:47;17.60;99.90
41722;DHT22;27407;24.142;-110.310;2023-02-15T04:34:14;17.50;99.90
41722;DHT22;27407;24.142;-110.310;2023-02-15T04:36:41;17.70;99.90
41722;DHT22;27407;24.142;-110.310;2023-02-15T04:39:08;17.40;99.90
41722;DHT22;27407;24.142;-110.310;2023-02-15T04:48:55;18.30;99.90
41722;DHT22;27407;24.142;-110.310;2023-02-15T04:51:22;16.60;99.90
41722;DHT22;27407;24.142;-110.310;2023-02-15T04:56:19;17.70;99.90
41722;DHT22;27407;24.142;-110.310;2023-02-15T05:03:39;16.30;99.90
41722;DHT22;27407;24.142;-110.310;2023-02-15T05:06:06;17.40;99.90
41722;DHT22;27407;24.142;-110.310;2023-02-15T05:08:32;17.70;99.90
41722;DHT22;27407;24.142;-110.310;2023-02-15T05:15:53;17.30;99.90
41722;DHT22;27407;24.142;-110.310;2023-02-15T05:18:21;17.10;99.90
41722;DHT22;27407;24.142;-110.310;2023-02-15T05:20:48;17.00;99.90
41722;DHT22;27407;24.142;-110.310;2023-02-15T05:23:15;17.80;99.90
41722;DHT22;27407;24.142;-110.310;2023-02-15T05:25:47;16.90;99.90
41722;DHT22;27407;24.142;-110.310;2023-02-15T05:40:45;17.30;99.90
41722;DHT22;27407;24.142;-110.310;2023-02-15T05:55:25;16.60;99.90
41722;DHT22;27407;24.142;-110.310;2023-02-15T06:15:06;17.00;99.90
41722;DHT22;27407;24.142;-110.310;2023-02-15T06:17:43;16.40;99.90
41722;DHT22;27407;24.142;-110.310;2023-02-15T06:20:10;16.20;99.90
41722;DHT22;27407;24.142;-110.310;2023-02-15T06:22:37;16.10;99.90
41722;DHT22;27407;24.142;-110.310;2023-02-15T06:25:04;16.30;99.90
41722;DHT22;27407;24.142;-110.310;2023-02-15T06:51:57;16.20;99.90
41722;DHT22;27407;24.142;-110.310;2023-02-15T06:56:50;16.00;99.90
41722;DHT22;27407;24.142;-110.310;2023-02-15T07:01:44;17.40;99.90
41722;DHT22;27407;24.142;-110.310;2023-02-15T07:11:31;16.10;99.90
41722;DHT22;27407;24.142;-110.310;2023-02-15T07:21:36;15.80;99.90
41722;DHT22;27407;24.142;-110.310;2023-02-15T07:24:03;15.90;99.90
41722;DHT22;27407;24.142;-110.310;2023-02-15T07:26:31;15.60;99.90
41722;DHT22;27407;24.142;-110.310;2023-02-15T07:33:51;15.30;99.90
41722;DHT22;27407;24.142;-110.310;2023-02-15T07:41:13;17.10;99.90
41722;DHT22;27407;24.142;-110.310;2023-02-15T07:43:42;15.40;99.90
41722;DHT22;27407;24.142;-110.310;2023-02-15T07:46:11;16.30;99.90
41722;DHT22;27407;24.142;-110.310;2023-02-15T07:48:39;15.80;99.90
41722;DHT22;27407;24.142;-110.310;2023-02-15T07:51:07;16.50;99.90
41722;DHT22;27407;24.142;-110.310;2023-02-15T07:53:35;16.00;99.90
41722;DHT22;27407;24.142;-110.310;2023-02-15T07:56:05;16.10;99.90
41722;DHT22;27407;24.142;-110.310;2023-02-15T07:58:32;15.40;99.90
41722;DHT22;27407;24.142;-110.310;2023-02-15T08:01:26;15.40;99.90
41722;DHT22;27407;24.142;-110.310;2023-02-15T08:03:56;14.90;99.90
41722;DHT22;27407;24.142;-110.310;2023-02-15T08:06:27;15.40;99.90
41722;DHT22;27407;24.142;-110.310;2023-02-15T08:11:28;16.60;99.90
41722;DHT22;27407;24.142;-110.310;2023-02-15T08:21:44;15.30;99.90
41722;DHT22;27407;24.142;-110.310;2023-02-15T08:24:13;16.80;99.90
41722;DHT22;27407;24.142;-110.310;2023-02-15T08:26:41;15.30;99.90
41722;DHT22;27407;24.142;-110.310;2023-02-15T08:29:08;14.90;99.90
41722;DHT22;27407;24.142;-110.310;2023-02-15T08:31:35;15.30;99.90
41722;DHT22;27407;24.142;-110.310;2023-02-15T08:34:04;15.20;99.90
41722;DHT22;27407;24.142;-110.310;2023-02-15T08:36:31;14.50;99.90
41722;DHT22;27407;24.142;-110.310;2023-02-15T08:38:59;15.50;99.90
41722;DHT22;27407;24.142;-110.310;2023-02-15T08:41:31;15.10;99.90
41722;DHT22;27407;24.142;-110.310;2023-02-15T08:44:01;15.00;99.90
41722;DHT22;27407;24.142;-110.310;2023-02-15T08:46:30;15.80;99.90
41722;DHT22;27407;24.142;-110.310;2023-02-15T08:48:58;15.10;99.90
41722;DHT22;27407;24.142;-110.310;2023-02-15T08:51:31;14.60;99.90
41722;DHT22;27407;24.142;-110.310;2023-02-15T08:54:00;16.00;99.90
41722;DHT22;27407;24.142;-110.310;2023-02-15T08:56:30;14.10;99.90
41722;DHT22;27407;24.142;-110.310;2023-02-15T08:58:58;15.00;99.90
41722;DHT22;27407;24.142;-110.310;2023-02-15T09:01:30;15.10;99.90
41722;DHT22;27407;24.142;-110.310;2023-02-15T09:04:00;14.90;99.90
41722;DHT22;27407;24.142;-110.310;2023-02-15T09:06:28;14.90;99.90
41722;DHT22;27407;24.142;-110.310;2023-02-15T09:08:55;14.20;99.90
41722;DHT22;27407;24.142;-110.310;2023-02-15T09:11:27;14.90;99.90
41722;DHT22;27407;24.142;-110.310;2023-02-15T09:14:03;14.60;99.90
41722;DHT22;27407;24.142;-110.310;2023-02-15T09:16:32;14.60;99.90
41722;DHT22;27407;24.142;-110.310;2023-02-15T09:18:59;14.30;99.90
41722;DHT22;27407;24.142;-110.310;2023-02-15T09:21:33;15.40;99.90
41722;DHT22;27407;24.142;-110.310;2023-02-15T09:24:03;14.80;99.90
41722;DHT22;27407;24.142;-110.310;2023-02-15T09:26:32;14.30;99.90
41722;DHT22;27407;24.142;-110.310;2023-02-15T09:29:00;14.00;99.90
41722;DHT22;27407;24.142;-110.310;2023-02-15T09:31:30;13.70;99.90
41722;DHT22;27407;24.142;-110.310;2023-02-15T09:33:57;13.70;99.90
41722;DHT22;27407;24.142;-110.310;2023-02-15T09:36:29;14.40;99.90
41722;DHT22;27407;24.142;-110.310;2023-02-15T09:38:57;14.30;99.90
41722;DHT22;27407;24.142;-110.310;2023-02-15T09:44:14;14.60;99.90
41722;DHT22;27407;24.142;-110.310;2023-02-15T09:53:43;14.40;99.90
41722;DHT22;27407;24.142;-110.310;2023-02-15T09:56:00;14.60;99.90
41722;DHT22;27407;24.142;-110.310;2023-02-15T10:10:11;14.50;99.90
41722;DHT22;27407;24.142;-110.310;2023-02-15T10:18:19;14.50;99.90
41722;DHT22;27407;24.142;-110.310;2023-02-15T10:21:08;14.40;99.90
41722;DHT22;27407;24.142;-110.310;2023-02-15T10:26:34;14.50;99.90
41722;DHT22;27407;24.142;-110.310;2023-02-15T10:31:51;14.50;99.90
41722;DHT22;27407;24.142;-110.310;2023-02-15T10:34:47;14.60;99.90
41722;DHT22;27407;24.142;-110.310;2023-02-15T10:43:36;14.60;99.90
41722;DHT22;27407;24.142;-110.310;2023-02-15T10:46:26;14.60;99.90
41722;DHT22;27407;24.142;-110.310;2023-02-15T10:51:56;14.60;99.90
41722;DHT22;27407;24.142;-110.310;2023-02-15T10:57:26;14.70;99.90
41722;DHT22;27407;24.142;-110.310;2023-02-15T11:00:18;14.00;99.90
41722;DHT22;27407;24.142;-110.310;2023-02-15T11:03:40;14.40;99.90
41722;DHT22;27407;24.142;-110.310;2023-02-15T11:06:12;14.30;99.90
41722;DHT22;27407;24.142;-110.310;2023-02-15T11:08:45;14.30;99.90
41722;DHT22;27407;24.142;-110.310;2023-02-15T11:11:16;14.70;99.90
41722;DHT22;27407;24.142;-110.310;2023-02-15T11:13:48;14.50;99.90
41722;DHT22;27407;24.142;-110.310;2023-02-15T11:16:28;14.10;99.90
41722;DHT22;27407;24.142;-110.310;2023-02-15T11:19:11;14.70;99.90
41722;DHT22;27407;24.142;-110.310;2023-02-15T11:21:57;14.40;99.90
41722;DHT22;27407;24.142;-110.310;2023-02-15T11:24:28;13.90;99.90
41722;DHT22;27407;24.142;-110.310;2023-02-15T11:27:25;15.20;99.90
41722;DHT22;27407;24.142;-110.310;2023-02-15T11:30:13;14.70;99.90
41722;DHT22;27407;24.142;-110.310;2023-02-15T11:33:00;14.30;99.90
41722;DHT22;27407;24.142;-110.310;2023-02-15T11:36:13;14.50;99.90
41722;DHT22;27407;24.142;-110.310;2023-02-15T11:38:29;14.50;99.90
41722;DHT22;27407;24.142;-110.310;2023-02-15T11:41:03;14.30;99.90
41722;DHT22;27407;24.142;-110.310;2023-02-15T11:48:30;14.50;99.90
41722;DHT22;27407;24.142;-110.310;2023-02-15T11:50:58;13.40;99.90
41722;DHT22;27407;24.142;-110.310;2023-02-15T11:53:31;13.60;99.90
41722;DHT22;27407;24.142;-110.310;2023-02-15T12:03:51;14.30;99.90
41722;DHT22;27407;24.142;-110.310;2023-02-15T12:06:33;14.20;99.90
41722;DHT22;27407;24.142;-110.310;2023-02-15T12:16:48;14.20;99.90
41722;DHT22;27407;24.142;-110.310;2023-02-15T12:19:32;13.90;99.90
41722;DHT22;27407;24.142;-110.310;2023-02-15T12:22:03;14.20;99.90
41722;DHT22;27407;24.142;-110.310;2023-02-15T12:24:37;14.20;99.90
41722;DHT22;27407;24.142;-110.310;2023-02-15T12:27:14;13.90;99.90
41722;DHT22;27407;24.142;-110.310;2023-02-15T12:32:34;14.20;99.90
41722;DHT22;27407;24.142;-110.310;2023-02-15T12:35:13;14.00;99.90
41722;DHT22;27407;24.142;-110.310;2023-02-15T12:37:56;14.20;99.90
41722;DHT22;27407;24.142;-110.310;2023-02-15T12:40:27;14.00;99.90
41722;DHT22;27407;24.142;-110.310;2023-02-15T12:42:55;14.20;99.90
41722;DHT22;27407;24.142;-110.310;2023-02-15T12:50:40;14.40;99.90
41722;DHT22;27407;24.142;-110.310;2023-02-15T12:55:59;14.10;99.90
41722;DHT22;27407;24.142;-110.310;2023-02-15T12:58:32;15.00;99.90
41722;DHT22;27407;24.142;-110.310;2023-02-15T13:01:18;14.10;99.90
41722;DHT22;27407;24.142;-110.310;2023-02-15T13:04:00;14.10;99.90
41722;DHT22;27407;24.142;-110.310;2023-02-15T13:06:28;15.00;99.90
41722;DHT22;27407;24.142;-110.310;2023-02-15T13:09:19;12.80;99.90
41722;DHT22;27407;24.142;-110.310;2023-02-15T13:11:45;12.90;99.90
41722;DHT22;27407;24.142;-110.310;2023-02-15T13:14:20;14.10;99.90
41722;DHT22;27407;24.142;-110.310;2023-02-15T13:16:51;13.70;99.90
41722;DHT22;27407;24.142;-110.310;2023-02-15T13:19:37;14.50;99.90
41722;DHT22;27407;24.142;-110.310;2023-02-15T13:22:10;14.20;99.90
41722;DHT22;27407;24.142;-110.310;2023-02-15T13:24:55;14.30;99.90
41722;DHT22;27407;24.142;-110.310;2023-02-15T13:27:29;15.50;99.90
41722;DHT22;27407;24.142;-110.310;2023-02-15T13:30:00;15.80;99.90
41722;DHT22;27407;24.142;-110.310;2023-02-15T13:32:32;15.10;99.90
41722;DHT22;27407;24.142;-110.310;2023-02-15T13:35:01;13.60;99.90
41722;DHT22;27407;24.142;-110.310;2023-02-15T13:37:42;14.10;99.90
41722;DHT22;27407;24.142;-110.310;2023-02-15T14:02:55;14.00;99.90
41722;DHT22;27407;24.142;-110.310;2023-02-15T14:24:24;13.80;99.90
41722;DHT22;27407;24.142;-110.310;2023-02-15T14:30:09;14.10;99.90
41722;DHT22;27407;24.142;-110.310;2023-02-15T14:33:31;14.20;99.90
41722;DHT22;27407;24.142;-110.310;2023-02-15T14:35:37;14.80;99.90
41722;DHT22;27407;24.142;-110.310;2023-02-15T14:41:47;14.50;99.90
41722;DHT22;27407;24.142;-110.310;2023-02-15T14:54:10;14.80;99.90
41722;DHT22;27407;24.142;-110.310;2023-02-15T14:59:38;16.10;99.90
41722;DHT22;27407;24.142;-110.310;2023-02-15T15:04:41;15.00;99.90
41722;DHT22;27407;24.142;-110.310;2023-02-15T15:09:38;15.20;99.90
41722;DHT22;27407;24.142;-110.310;2023-02-15T15:15:05;15.40;99.90
41722;DHT22;27407;24.142;-110.310;2023-02-15T15:20:01;14.90;99.90
41722;DHT22;27407;24.142;-110.310;2023-02-15T15:22:30;15.90;99.90
41722;DHT22;27407;24.142;-110.310;2023-02-15T15:49:35;16.20;99.90
41722;DHT22;27407;24.142;-110.310;2023-02-15T15:52:13;15.60;99.90
41722;DHT22;27407;24.142;-110.310;2023-02-15T15:54:41;16.50;99.90
41722;DHT22;27407;24.142;-110.310;2023-02-15T16:00:15;16.60;99.90
41722;DHT22;27407;24.142;-110.310;2023-02-15T16:02:53;19.20;99.90
41722;DHT22;27407;24.142;-110.310;2023-02-15T16:07:49;15.90;99.90
41722;DHT22;27407;24.142;-110.310;2023-02-15T16:10:26;16.80;99.90
41722;DHT22;27407;24.142;-110.310;2023-02-15T16:12:54;16.80;99.90
41722;DHT22;27407;24.142;-110.310;2023-02-15T16:15:35;17.00;99.90
41722;DHT22;27407;24.142;-110.310;2023-02-15T16:18:03;17.30;99.90
41722;DHT22;27407;24.142;-110.310;2023-02-15T16:20:36;17.30;99.90
41722;DHT22;27407;24.142;-110.310;2023-02-15T16:28:53;17.40;99.90
41722;DHT22;27407;24.142;-110.310;2023-02-15T16:31:22;17.40;99.90
41722;DHT22;27407;24.142;-110.310;2023-02-15T16:33:51;17.60;99.90
41722;DHT22;27407;24.142;-110.310;2023-02-15T16:36:23;17.60;99.90
41722;DHT22;27407;24.142;-110.310;2023-02-15T16:41:30;17.80;99.90
41722;DHT22;27407;24.142;-110.310;2023-02-15T16:44:03;18.40;99.90
41722;DHT22;27407;24.142;-110.310;2023-02-15T16:46:38;18.10;99.90
41722;DHT22;27407;24.142;-110.310;2023-02-15T16:49:20;18.00;99.90
41722;DHT22;27407;24.142;-110.310;2023-02-15T16:52:04;18.30;99.90
41722;DHT22;27407;24.142;-110.310;2023-02-15T16:54:34;18.50;99.90
41722;DHT22;27407;24.142;-110.310;2023-02-15T16:57:02;18.70;99.90
41722;DHT22;27407;24.142;-110.310;2023-02-15T16:59:41;18.70;99.90
41722;DHT22;27407;24.142;-110.310;2023-02-15T17:04:43;19.20;99.90
41722;DHT22;27407;24.142;-110.310;2023-02-15T17:07:18;19.20;99.90
41722;DHT22;27407;24.142;-110.310;2023-02-15T17:09:53;19.40;99.90
41722;DHT22;27407;24.142;-110.310;2023-02-15T17:12:45;19.20;99.90
41722;DHT22;27407;24.142;-110.310;2023-02-15T17:15:36;18.80;99.90
41722;DHT22;27407;24.142;-110.310;2023-02-15T17:18:28;19.50;99.90
41722;DHT22;27407;24.142;-110.310;2023-02-15T17:20:58;19.60;99.90
41722;DHT22;27407;24.142;-110.310;2023-02-15T17:23:43;19.80;99.90
41722;DHT22;27407;24.142;-110.310;2023-02-15T17:26:22;18.50;99.90
41722;DHT22;27407;24.142;-110.310;2023-02-15T17:28:54;19.80;99.90
41722;DHT22;27407;24.142;-110.310;2023-02-15T17:31:25;18.50;99.90
41722;DHT22;27407;24.142;-110.310;2023-02-15T17:33:54;20.10;99.90
41722;DHT22;27407;24.142;-110.310;2023-02-15T17:36:24;20.60;99.90
41722;DHT22;27407;24.142;-110.310;2023-02-15T17:41:32;20.20;99.90
41722;DHT22;27407;24.142;-110.310;2023-02-15T17:44:01;20.10;99.90
41722;DHT22;27407;24.142;-110.310;2023-02-15T17:46:33;20.30;99.90
41722;DHT22;27407;24.142;-110.310;2023-02-15T17:49:02;20.40;99.90
41722;DHT22;27407;24.142;-110.310;2023-02-15T17:51:30;20.30;99.90
41722;DHT22;27407;24.142;-110.310;2023-02-15T17:53:57;20.50;99.90
41722;DHT22;27407;24.142;-110.310;2023-02-15T17:56:42;20.50;99.90
41722;DHT22;27407;24.142;-110.310;2023-02-15T18:01:46;20.70;99.90
41722;DHT22;27407;24.142;-110.310;2023-02-15T18:04:32;20.90;99.90
41722;DHT22;27407;24.142;-110.310;2023-02-15T18:07:19;20.30;99.90
41722;DHT22;27407;24.142;-110.310;2023-02-15T18:10:15;20.70;99.90
41722;DHT22;27407;24.142;-110.310;2023-02-15T18:17:54;21.20;99.90
41722;DHT22;27407;24.142;-110.310;2023-02-15T18:20:29;21.20;99.90
41722;DHT22;27407;24.142;-110.310;2023-02-15T18:22:57;19.90;99.90
41722;DHT22;27407;24.142;-110.310;2023-02-15T18:25:23;23.30;99.90
41722;DHT22;27407;24.142;-110.310;2023-02-15T18:27:51;20.90;99.90
41722;DHT22;27407;24.142;-110.310;2023-02-15T18:30:20;22.80;99.90
41722;DHT22;27407;24.142;-110.310;2023-02-15T18:32:49;22.10;99.90
41722;DHT22;27407;24.142;-110.310;2023-02-15T18:35:20;21.80;99.90
41722;DHT22;27407;24.142;-110.310;2023-02-15T18:37:47;21.60;99.90
41722;DHT22;27407;24.142;-110.310;2023-02-15T18:40:20;21.40;99.90
41722;DHT22;27407;24.142;-110.310;2023-02-15T18:42:47;22.20;99.90
41722;DHT22;27407;24.142;-110.310;2023-02-15T18:47:41;23.20;99.90
41722;DHT22;27407;24.142;-110.310;2023-02-15T18:50:08;22.90;99.90
41722;DHT22;27407;24.142;-110.310;2023-02-15T18:52:36;23.10;99.90
41722;DHT22;27407;24.142;-110.310;2023-02-15T18:55:24;23.30;99.90
41722;DHT22;27407;24.142;-110.310;2023-02-15T18:57:54;21.90;99.90
41722;DHT22;27407;24.142;-110.310;2023-02-15T19:00:29;23.70;99.90
41722;DHT22;27407;24.142;-110.310;2023-02-15T19:03:00;23.40;99.90
41722;DHT22;27407;24.142;-110.310;2023-02-15T19:05:28;23.60;99.90
41722;DHT22;27407;24.142;-110.310;2023-02-15T19:07:56;23.00;99.90
41722;DHT22;27407;24.142;-110.310;2023-02-15T19:10:26;23.70;99.90
41722;DHT22;27407;24.142;-110.310;2023-02-15T19:12:54;23.80;99.90
41722;DHT22;27407;24.142;-110.310;2023-02-15T19:18:10;24.20;99.90
41722;DHT22;27407;24.142;-110.310;2023-02-15T19:20:44;24.40;99.90
41722;DHT22;27407;24.142;-110.310;2023-02-15T19:23:18;23.70;99.90
41722;DHT22;27407;24.142;-110.310;2023-02-15T19:25:47;23.60;99.90
41722;DHT22;27407;24.142;-110.310;2023-02-15T19:28:25;23.80;99.90
41722;DHT22;27407;24.142;-110.310;2023-02-15T19:30:52;25.70;99.90
41722;DHT22;27407;24.142;-110.310;2023-02-15T19:33:20;24.20;99.90
41722;DHT22;27407;24.142;-110.310;2023-02-15T19:35:52;25.00;99.90
41722;DHT22;27407;24.142;-110.310;2023-02-15T19:38:25;22.70;99.90
41722;DHT22;27407;24.142;-110.310;2023-02-15T19:41:00;25.80;99.90
41722;DHT22;27407;24.142;-110.310;2023-02-15T19:43:29;25.20;99.90
41722;DHT22;27407;24.142;-110.310;2023-02-15T19:48:22;24.20;99.90
41722;DHT22;27407;24.142;-110.310;2023-02-15T19:50:49;24.50;99.90
41722;DHT22;27407;24.142;-110.310;2023-02-15T19:53:21;25.20;99.90
41722;DHT22;27407;24.142;-110.310;2023-02-15T19:55:49;23.40;99.90
41722;DHT22;27407;24.142;-110.310;2023-02-15T19:58:16;24.20;99.90
41722;DHT22;27407;24.142;-110.310;2023-02-15T20:00:48;24.40;99.90
41722;DHT22;27407;24.142;-110.310;2023-02-15T20:03:15;25.30;99.90
41722;DHT22;27407;24.142;-110.310;2023-02-15T20:05:43;24.10;99.90
41722;DHT22;27407;24.142;-110.310;2023-02-15T20:08:18;24.90;99.90
41722;DHT22;27407;24.142;-110.310;2023-02-15T20:10:45;25.50;98.90
41722;DHT22;27407;24.142;-110.310;2023-02-15T20:13:14;25.40;99.00
41722;DHT22;27407;24.142;-110.310;2023-02-15T20:15:41;25.90;98.50
41722;DHT22;27407;24.142;-110.310;2023-02-15T20:18:21;26.60;97.40
41722;DHT22;27407;24.142;-110.310;2023-02-15T20:20:50;26.80;97.40
41722;DHT22;27407;24.142;-110.310;2023-02-15T20:23:32;26.50;96.00
41722;DHT22;27407;24.142;-110.310;2023-02-15T20:26:09;26.00;96.10
41722;DHT22;27407;24.142;-110.310;2023-02-15T20:28:38;27.80;96.50
41722;DHT22;27407;24.142;-110.310;2023-02-15T20:31:04;26.50;96.20
41722;DHT22;27407;24.142;-110.310;2023-02-15T20:33:31;26.60;95.80
41722;DHT22;27407;24.142;-110.310;2023-02-15T20:35:58;26.80;95.10
41722;DHT22;27407;24.142;-110.310;2023-02-15T20:38:27;26.60;94.90
41722;DHT22;27407;24.142;-110.310;2023-02-15T20:40:55;26.60;94.60
41722;DHT22;27407;24.142;-110.310;2023-02-15T20:43:40;25.90;94.40
41722;DHT22;27407;24.142;-110.310;2023-02-15T20:46:07;26.80;94.60
41722;DHT22;27407;24.142;-110.310;2023-02-15T20:51:01;26.20;94.20
41722;DHT22;27407;24.142;-110.310;2023-02-15T20:53:28;26.10;93.70
41722;DHT22;27407;24.142;-110.310;2023-02-15T20:55:55;25.80;93.60
41722;DHT22;27407;24.142;-110.310;2023-02-15T20:58:25;25.60;93.90
41722;DHT22;27407;24.142;-110.310;2023-02-15T21:00:58;27.20;94.50
41722;DHT22;27407;24.142;-110.310;2023-02-15T21:03:26;26.30;93.40
41722;DHT22;27407;24.142;-110.310;2023-02-15T21:05:56;26.20;93.20
41722;DHT22;27407;24.142;-110.310;2023-02-15T21:08:23;26.90;93.40
41722;DHT22;27407;24.142;-110.310;2023-02-15T21:10:51;27.50;92.30
41722;DHT22;27407;24.142;-110.310;2023-02-15T21:13:21;28.40;91.00
41722;DHT22;27407;24.142;-110.310;2023-02-15T21:15:49;27.70;91.10
41722;DHT22;27407;24.142;-110.310;2023-02-15T21:18:24;26.50;91.00
41722;DHT22;27407;24.142;-110.310;2023-02-15T21:20:52;27.40;91.20
41722;DHT22;27407;24.142;-110.310;2023-02-15T21:23:23;27.30;91.20
41722;DHT22;27407;24.142;-110.310;2023-02-15T21:25:50;28.10;90.60
41722;DHT22;27407;24.142;-110.310;2023-02-15T21:28:22;27.70;89.80
41722;DHT22;27407;24.142;-110.310;2023-02-15T21:30:50;27.40;90.00
41722;DHT22;27407;24.142;-110.310;2023-02-15T21:33:18;26.90;90.00
41722;DHT22;27407;24.142;-110.310;2023-02-15T21:35:49;27.10;90.50
41722;DHT22;27407;24.142;-110.310;2023-02-15T21:38:19;27.70;90.10
41722;DHT22;27407;24.142;-110.310;2023-02-15T21:40:47;27.80;89.80
41722;DHT22;27407;24.142;-110.310;2023-02-15T21:43:21;27.90;89.70
41722;DHT22;27407;24.142;-110.310;2023-02-15T21:46:18;27.60;89.80
41722;DHT22;27407;24.142;-110.310;2023-02-15T21:49:04;27.70;87.90
41722;DHT22;27407;24.142;-110.310;2023-02-15T21:51:38;28.70;86.50
41722;DHT22;27407;24.142;-110.310;2023-02-15T21:54:23;28.40;86.40
41722;DHT22;27407;24.142;-110.310;2023-02-15T21:56:53;27.90;87.00
41722;DHT22;27407;24.142;-110.310;2023-02-15T21:59:20;28.40;85.60